Flight Track Log - Related Links

Times and Time Zones

All times are in EDT time to prevent confusion due to time zone crossing. See the SWA2236 flight status page for this flight to view local times or setup timezone preferences in your user account.

Time Position Orientation Groundspeed Altitude Reporting Facility
EDT Latitude Longitude Course Direction KTS MPH feet Rate Location/Type
Sun 03:51:00 PM 32.3386 -88.0706 92° East  Level Estimated
Sun 03:52:00 PM 32.3324 -88.0469 107° East  Level Estimated
Sun 03:53:00 PM 32.3262 -88.0231 107° East  Level Estimated
Sun 03:54:00 PM 32.3201 -87.9994 107° East  Level Estimated
Sun 03:55:00 PM 32.3139 -87.9756 107° East  Level Estimated
Sun 03:56:00 PM 32.3078 -87.9519 107° East  Level Estimated
Sun 03:57:00 PM 32.3016 -87.9282 107° East  Level Estimated
Sun 03:58:00 PM 32.2954 -87.9045 107° East  Level Estimated
Sun 03:59:00 PM 32.2893 -87.8807 107° East  Level Estimated
Sun 04:00:00 PM 32.2831 -87.8570 107° East  Level Estimated
Sun 04:01:00 PM 32.2769 -87.8333 107° East  Level Estimated
Sun 04:02:00 PM 32.2707 -87.8096 107° East  Level Estimated
Sun 04:03:00 PM 32.2645 -87.7859 107° East  Level Estimated
Sun 04:04:00 PM 32.2583 -87.7622 107° East  Level Estimated
Sun 04:05:00 PM 32.2521 -87.7385 107° East  Level Estimated
Sun 04:06:00 PM 32.2459 -87.7148 107° East  Level Estimated
Sun 04:07:00 PM 32.2397 -87.6911 107° East  Level Estimated
Sun 04:08:00 PM 32.2335 -87.6674 107° East  Level Estimated
Sun 04:09:00 PM 32.2272 -87.6437 107° East  Level Estimated
Sun 04:10:00 PM 32.2210 -87.6200 107° East  Level Estimated
Sun 04:11:00 PM 32.2148 -87.5963 107° East  Level Estimated
Sun 04:12:00 PM 32.2086 -87.5726 107° East  Level Estimated
Sun 04:13:00 PM 32.2023 -87.5490 107° East  Level Estimated
Sun 04:14:00 PM 32.1961 -87.5253 107° East  Level Estimated
Sun 04:15:00 PM 32.1898 -87.5016 107° East  Level Estimated
Sun 04:16:00 PM 32.1836 -87.4780 107° East  Level Estimated
Sun 04:17:00 PM 32.1773 -87.4543 107° East  Level Estimated
Sun 04:18:00 PM 32.1711 -87.4306 107° East  Level Estimated
Sun 04:19:00 PM 32.1648 -87.4070 107° East  Level Estimated
Sun 04:20:00 PM 32.1585 -87.3833 107° East  Level Estimated
Sun 04:21:00 PM 32.1523 -87.3597 107° East  Level Estimated
Sun 04:22:00 PM 32.1460 -87.3360 107° East  Level Estimated
Sun 04:23:00 PM 32.1397 -87.3124 107° East  Level Estimated
Sun 04:24:00 PM 32.1334 -87.2887 107° East  Level Estimated
Sun 04:25:00 PM 32.1271 -87.2651 107° East  Level Estimated
Sun 04:26:00 PM 32.1208 -87.2415 107° East  Level Estimated
Sun 04:27:00 PM 32.1145 -87.2178 107° East  Level Estimated
Sun 04:28:00 PM 32.1082 -87.1942 107° East  Level Estimated
Sun 04:29:00 PM 32.1019 -87.1706 107° East  Level Estimated
Sun 04:30:00 PM 32.0956 -87.1470 108° East  Level Estimated
Sun 04:31:00 PM 32.0893 -87.1234 108° East  Level Estimated
Sun 04:32:00 PM 32.0830 -87.0997 108° East  Level Estimated
Sun 04:33:00 PM 32.0766 -87.0761 108° East  Level Estimated
Sun 04:34:00 PM 32.0703 -87.0525 108° East  Level Estimated
Sun 04:35:00 PM 32.0640 -87.0289 108° East  Level Estimated
Sun 04:36:00 PM 32.0576 -87.0053 108° East  Level Estimated
Sun 04:37:00 PM 32.0513 -86.9817 108° East  Level Estimated
Sun 04:38:00 PM 32.0449 -86.9581 108° East  Level Estimated
Sun 04:39:00 PM 32.0386 -86.9345 108° East  Level Estimated
Sun 04:40:00 PM 32.0322 -86.9109 108° East  Level Estimated
Sun 04:41:00 PM 32.0259 -86.8874 108° East  Level Estimated
Sun 04:42:00 PM 32.0195 -86.8638 108° East  Level Estimated
Sun 04:43:00 PM 32.0131 -86.8402 108° East  Level Estimated
Sun 04:44:00 PM 32.0068 -86.8166 108° East  Level Estimated
Sun 04:45:00 PM 32.0004 -86.7931 108° East  Level Estimated
Sun 04:46:00 PM 31.9940 -86.7695 108° East  Level Estimated
Sun 04:47:00 PM 31.9876 -86.7459 108° East  Level Estimated
Sun 04:48:00 PM 31.9812 -86.7224 108° East  Level Estimated
Sun 04:49:00 PM 31.9748 -86.6988 108° East  Level Estimated
Sun 04:50:00 PM 31.9684 -86.6752 108° East  Level Estimated
Sun 04:51:00 PM 31.9620 -86.6517 108° East  Level Estimated
Sun 04:52:00 PM 31.9556 -86.6281 108° East  Level Estimated
Sun 04:53:00 PM 31.9492 -86.6046 108° East  Level Estimated
Sun 04:54:00 PM 31.9428 -86.5810 108° East  Level Estimated
Sun 04:55:00 PM 31.9364 -86.5575 108° East  Level Estimated
Sun 04:56:00 PM 31.9299 -86.5340 108° East  Level Estimated
Sun 04:57:00 PM 31.9235 -86.5104 108° East  Level Estimated
Sun 04:58:00 PM 31.9171 -86.4869 108° East  Level Estimated
Sun 04:59:00 PM 31.9106 -86.4634 108° East  Level Estimated
Sun 05:00:00 PM 31.9042 -86.4398 108° East  Level Estimated
Sun 05:01:00 PM 31.8978 -86.4163 108° East  Level Estimated
Sun 05:02:00 PM 31.8913 -86.3928 108° East  Level Estimated
Sun 05:03:00 PM 31.8848 -86.3693 108° East  Level Estimated
Sun 05:04:00 PM 31.8784 -86.3458 108° East  Level Estimated
Sun 05:05:00 PM 31.8719 -86.3223 108° East  Level Estimated
Sun 05:06:00 PM 31.8654 -86.2988 108° East  Level Estimated
Sun 05:07:00 PM 31.8590 -86.2753 108° East  Level Estimated
Sun 05:08:00 PM 31.8525 -86.2518 108° East  Level Estimated
Sun 05:09:00 PM 31.8460 -86.2283 108° East  Level Estimated
Sun 05:10:00 PM 31.8395 -86.2048 108° East  Level Estimated
Sun 05:11:00 PM 31.8330 -86.1813 108° East  Level Estimated
Sun 05:12:00 PM 31.8265 -86.1578 108° East  Level Estimated
Sun 05:13:00 PM 31.8200 -86.1344 108° East  Level Estimated
Sun 05:14:00 PM 31.8135 -86.1109 108° East  Level Estimated
Sun 05:15:00 PM 31.8070 -86.0874 108° East  Level Estimated
Sun 05:16:00 PM 31.8005 -86.0639 108° East  Level Estimated
Sun 05:17:00 PM 31.7940 -86.0405 108° East  Level Estimated
Sun 05:18:00 PM 31.7875 -86.0170 108° East  Level Estimated
Sun 05:19:00 PM 31.7809 -85.9935 108° East  Level Estimated
Sun 05:20:00 PM 31.7744 -85.9701 108° East  Level Estimated
Sun 05:21:00 PM 31.7679 -85.9466 108° East  Level Estimated
Sun 05:22:00 PM 31.7613 -85.9232 108° East  Level Estimated
Sun 05:23:00 PM 31.7548 -85.8997 108° East  Level Estimated
Sun 05:24:00 PM 31.7482 -85.8763 108° East  Level Estimated
Sun 05:25:00 PM 31.7417 -85.8529 108° East  Level Estimated
Sun 05:26:00 PM 31.7351 -85.8294 108° East  Level Estimated
Sun 05:27:00 PM 31.7286 -85.8060 108° East  Level Estimated
Sun 05:28:00 PM 31.7220 -85.7825 108° East  Level Estimated
Sun 05:29:00 PM 31.7155 -85.7591 108° East  Level Estimated
Sun 05:30:00 PM 31.7089 -85.7357 108° East  Level Estimated
Sun 05:31:00 PM 31.7023 -85.7123 108° East  Level Estimated
Sun 05:32:00 PM 31.6957 -85.6889 108° East  Level Estimated
Sun 05:33:00 PM 31.6891 -85.6655 108° East  Level Estimated
Sun 05:34:00 PM 31.6825 -85.6420 108° East  Level Estimated
Sun 05:35:00 PM 31.6759 -85.6186 108° East  Level Estimated
Sun 05:36:00 PM 31.6693 -85.5952 108° East  Level Estimated
Sun 05:37:00 PM 31.6628 -85.5718 108° East  Level Estimated
Sun 05:38:00 PM 31.6561 -85.5484 108° East  Level Estimated
Sun 05:39:00 PM 31.6495 -85.5250 108° East  Level Estimated
Sun 05:40:00 PM 31.6429 -85.5016 108° East  Level Estimated
Sun 05:41:00 PM 31.6363 -85.4783 108° East  Level Estimated
Sun 05:42:00 PM 31.6297 -85.4549 108° East  Level Estimated
Sun 05:43:00 PM 31.6230 -85.4315 108° East  Level Estimated
Sun 05:44:00 PM 31.6164 -85.4081 108° East  Level Estimated
Sun 05:45:00 PM 31.6098 -85.3848 108° East  Level Estimated
Sun 05:46:00 PM 31.6031 -85.3614 108° East  Level Estimated
Sun 05:47:00 PM 31.5965 -85.3380 108° East  Level Estimated
Sun 05:48:00 PM 31.5898 -85.3147 108° East  Level Estimated
Sun 05:49:00 PM 31.5832 -85.2913 108° East  Level Estimated
Sun 05:50:00 PM 31.5765 -85.2679 108° East  Level Estimated
Sun 05:51:00 PM 31.5699 -85.2446 109° East  Level Estimated
Sun 05:52:00 PM 31.5632 -85.2212 109° East  Level Estimated
Sun 05:53:00 PM 31.5565 -85.1979 109° East  Level Estimated
Sun 05:54:00 PM 31.5498 -85.1745 109° East  Level Estimated
Sun 05:55:00 PM 31.5432 -85.1512 109° East  Level Estimated
Sun 05:56:00 PM 31.5365 -85.1279 109° East  Level Estimated
Sun 05:57:00 PM 31.5298 -85.1045 109° East  Level Estimated
Sun 05:58:00 PM 31.5231 -85.0812 109° East  Level Estimated
Sun 05:59:00 PM 31.5164 -85.0579 109° East  Level Estimated
Sun 06:00:00 PM 31.5097 -85.0346 109° East  Level Estimated
Sun 06:01:00 PM 31.5030 -85.0112 109° East  Level Estimated
Sun 06:02:00 PM 31.4963 -84.9879 109° East  Level Estimated
Sun 06:03:00 PM 31.4896 -84.9646 109° East  Level Estimated
Sun 06:04:00 PM 31.4829 -84.9413 109° East  Level Estimated
Sun 06:05:00 PM 31.4761 -84.9180 109° East  Level Estimated
Sun 06:06:00 PM 31.4694 -84.8947 109° East  Level Estimated
Sun 06:07:00 PM 31.4627 -84.8714 109° East  Level Estimated
Sun 06:08:00 PM 31.4559 -84.8481 109° East  Level Estimated
Sun 06:09:00 PM 31.4492 -84.8248 109° East  Level Estimated
Sun 06:10:00 PM 31.4425 -84.8015 109° East  Level Estimated
Sun 06:11:00 PM 31.4357 -84.7782 109° East  Level Estimated
Sun 06:12:00 PM 31.4290 -84.7549 109° East  Level Estimated
Sun 06:13:00 PM 31.4222 -84.7317 109° East  Level Estimated
Sun 06:14:00 PM 31.4154 -84.7084 109° East  Level Estimated
Sun 06:15:00 PM 31.4087 -84.6851 109° East  Level Estimated
Sun 06:16:00 PM 31.4019 -84.6618 109° East  Level Estimated
Sun 06:17:00 PM 31.3951 -84.6386 109° East  Level Estimated
Sun 06:18:00 PM 31.3884 -84.6153 109° East  Level Estimated
Sun 06:19:00 PM 31.3816 -84.5920 109° East  Level Estimated
Sun 06:20:00 PM 31.3748 -84.5688 109° East  Level Estimated
Sun 06:21:00 PM 31.3680 -84.5455 109° East  Level Estimated
Sun 06:22:00 PM 31.3612 -84.5223 109° East  Level Estimated
Sun 06:23:00 PM 31.3544 -84.4990 109° East  Level Estimated
Sun 06:24:00 PM 31.3476 -84.4758 109° East  Level Estimated
Sun 06:25:00 PM 31.3408 -84.4526 109° East  Level Estimated
Sun 06:26:00 PM 31.3340 -84.4293 109° East  Level Estimated
Sun 06:27:00 PM 31.3272 -84.4061 109° East  Level Estimated
Sun 06:28:00 PM 31.3204 -84.3829 109° East  Level Estimated
Sun 06:29:00 PM 31.3136 -84.3596 109° East  Level Estimated
Sun 06:30:00 PM 31.3067 -84.3364 109° East  Level Estimated
Sun 06:31:00 PM 31.2999 -84.3132 109° East  Level Estimated
Sun 06:32:00 PM 31.2931 -84.2900 109° East  Level Estimated
Sun 06:33:00 PM 31.2862 -84.2667 109° East  Level Estimated
Sun 06:34:00 PM 31.2794 -84.2435 109° East  Level Estimated
Sun 06:35:00 PM 31.2725 -84.2203 109° East  Level Estimated
Sun 06:36:00 PM 31.2657 -84.1971 109° East  Level Estimated
Sun 06:37:00 PM 31.2588 -84.1739 109° East  Level Estimated
Sun 06:38:00 PM 31.2520 -84.1507 109° East  Level Estimated
Sun 06:39:00 PM 31.2451 -84.1275 109° East  Level Estimated
Sun 06:40:00 PM 31.2382 -84.1043 109° East  Level Estimated
Sun 06:41:00 PM 31.2314 -84.0812 109° East  Level Estimated
Sun 06:42:00 PM 31.2245 -84.0580 109° East  Level Estimated
Sun 06:43:00 PM 31.2176 -84.0348 109° East  Level Estimated
Sun 06:44:00 PM 31.2107 -84.0116 109° East  Level Estimated
Sun 06:45:00 PM 31.2038 -83.9884 109° East  Level Estimated
Sun 06:46:00 PM 31.1969 -83.9653 109° East  Level Estimated
Sun 06:47:00 PM 31.1900 -83.9421 109° East  Level Estimated
Sun 06:48:00 PM 31.1831 -83.9190 109° East  Level Estimated
Sun 06:49:00 PM 31.1762 -83.8958 109° East  Level Estimated
Sun 06:50:00 PM 31.1693 -83.8726 109° East  Level Estimated
Sun 06:51:00 PM 31.1624 -83.8495 109° East  Level Estimated
Sun 06:52:00 PM 31.1555 -83.8263 109° East  Level Estimated
Sun 06:53:00 PM 31.1486 -83.8032 109° East  Level Estimated
Sun 06:54:00 PM 31.1416 -83.7800 109° East  Level Estimated
Sun 06:55:00 PM 31.1347 -83.7569 109° East  Level Estimated
Sun 06:56:00 PM 31.1278 -83.7338 109° East  Level Estimated
Sun 06:57:00 PM 31.1208 -83.7106 109° East  Level Estimated
Sun 06:58:00 PM 31.1139 -83.6875 109° East  Level Estimated
Sun 06:59:00 PM 31.1069 -83.6644 109° East  Level Estimated
Sun 07:00:00 PM 31.1000 -83.6413 109° East  Level Estimated
Sun 07:01:00 PM 31.0930 -83.6181 109° East  Level Estimated
Sun 07:02:00 PM 31.0861 -83.5950 109° East  Level Estimated
Sun 07:03:00 PM 31.0791 -83.5719 109° East  Level Estimated
Sun 07:04:00 PM 31.0721 -83.5488 109° East  Level Estimated
Sun 07:05:00 PM 31.0652 -83.5257 109° East  Level Estimated
Sun 07:06:00 PM 31.0582 -83.5026 109° East  Level Estimated
Sun 07:07:00 PM 31.0512 -83.4795 109° East  Level Estimated
Sun 07:08:00 PM 31.0442 -83.4564 109° East  Level Estimated
Sun 07:09:00 PM 31.0372 -83.4333 109° East  Level Estimated
Sun 07:10:00 PM 31.0303 -83.4102 109° East  Level Estimated
Sun 07:11:00 PM 31.0233 -83.3872 109° East  Level Estimated
Sun 07:12:00 PM 31.0163 -83.3641 109° East  Level Estimated
Sun 07:13:00 PM 31.0093 -83.3410 109° East  Level Estimated
Sun 07:14:00 PM 31.0022 -83.3179 110° East  Level Estimated
Sun 07:15:00 PM 30.9952 -83.2949 110° East  Level Estimated
Sun 07:16:00 PM 30.9882 -83.2718 110° East  Level Estimated
Sun 07:17:00 PM 30.9812 -83.2487 110° East  Level Estimated
Sun 07:18:00 PM 30.9742 -83.2257 110° East  Level Estimated
Sun 07:19:00 PM 30.9671 -83.2026 110° East  Level Estimated
Sun 07:20:00 PM 30.9601 -83.1796 110° East  Level Estimated
Sun 07:21:00 PM 30.9531 -83.1565 110° East  Level Estimated
Sun 07:22:00 PM 30.9460 -83.1335 110° East  Level Estimated
Sun 07:23:00 PM 30.9390 -83.1104 110° East  Level Estimated
Sun 07:24:00 PM 30.9319 -83.0874 110° East  Level Estimated
Sun 07:25:00 PM 30.9249 -83.0643 110° East  Level Estimated
Sun 07:26:00 PM 30.9178 -83.0413 110° East  Level Estimated
Sun 07:27:00 PM 30.9107 -83.0183 110° East  Level Estimated
Sun 07:28:00 PM 30.9037 -82.9952 110° East  Level Estimated
Sun 07:29:00 PM 30.8966 -82.9722 110° East  Level Estimated
Sun 07:30:00 PM 30.8895 -82.9492 110° East  Level Estimated
Sun 07:31:00 PM 30.8825 -82.9262 110° East  Level Estimated
Sun 07:32:00 PM 30.8754 -82.9032 110° East  Level Estimated
Sun 07:33:00 PM 30.8683 -82.8802 110° East  Level Estimated
Sun 07:34:00 PM 30.8612 -82.8572 110° East  Level Estimated
Sun 07:35:00 PM 30.8541 -82.8342 110° East  Level Estimated
Sun 07:36:00 PM 30.8470 -82.8112 110° East  Level Estimated
Sun 07:37:00 PM 30.8399 -82.7882 110° East  Level Estimated
Sun 07:38:00 PM 30.8328 -82.7652 110° East  Level Estimated
Sun 07:39:00 PM 30.8257 -82.7422 110° East  Level Estimated
Sun 07:40:00 PM 30.8186 -82.7192 110° East  Level Estimated
Sun 07:41:00 PM 30.8114 -82.6962 110° East  Level Estimated
Sun 07:42:00 PM 30.8043 -82.6732 110° East  Level Estimated
Sun 07:43:00 PM 30.7972 -82.6503 110° East  Level Estimated
Sun 07:44:00 PM 30.7901 -82.6273 110° East  Level Estimated
Sun 07:45:00 PM 30.7829 -82.6043 110° East  Level Estimated
Sun 07:46:00 PM 30.7758 -82.5813 110° East  Level Estimated
Sun 07:47:00 PM 30.7687 -82.5584 110° East  Level Estimated
Sun 07:48:00 PM 30.7615 -82.5354 110° East  Level Estimated
Sun 07:49:00 PM 30.7544 -82.5125 110° East  Level Estimated
Sun 07:50:00 PM 30.7472 -82.4895 110° East  Level Estimated
Sun 07:51:00 PM 30.7400 -82.4666 110° East  Level Estimated
Sun 07:52:00 PM 30.7329 -82.4436 110° East  Level Estimated
Sun 07:53:00 PM 30.7257 -82.4207 110° East  Level Estimated
Sun 07:54:00 PM 30.7185 -82.3978 110° East  Level Estimated
Sun 07:55:00 PM 30.7113 -82.3748 110° East  Level Estimated
Sun 07:56:00 PM 30.7042 -82.3519 110° East  Level Estimated
Sun 07:57:00 PM 30.6970 -82.3290 110° East  Level Estimated
Sun 07:58:00 PM 30.6898 -82.3060 110° East  Level Estimated
Sun 07:59:00 PM 30.6826 -82.2831 110° East  Level Estimated
Sun 08:00:00 PM 30.6754 -82.2602 110° East  Level Estimated
Sun 08:01:00 PM 30.6682 -82.2373 110° East  Level Estimated
Sun 08:02:00 PM 30.6610 -82.2144 110° East  Level Estimated
Sun 08:03:00 PM 30.6538 -82.1915 110° East  Level Estimated
Sun 08:04:00 PM 30.6466 -82.1686 110° East  Level Estimated
Sun 08:05:00 PM 30.6394 -82.1457 110° East  Level Estimated
Sun 08:06:00 PM 30.6322 -82.1228 110° East  Level Estimated
Sun 08:07:00 PM 30.6249 -82.0999 110° East  Level Estimated
Sun 08:08:00 PM 30.6177 -82.0770 110° East  Level Estimated
Sun 08:09:00 PM 30.6105 -82.0541 110° East  Level Estimated
Sun 08:10:00 PM 30.6032 -82.0312 110° East  Level Estimated
Sun 08:11:00 PM 30.5960 -82.0083 110° East  Level Estimated
Sun 08:12:00 PM 30.5888 -81.9855 110° East  Level Estimated
Sun 08:13:00 PM 30.5815 -81.9626 110° East  Level Estimated
Sun 08:14:00 PM 30.5742 -81.9397 110° East  Level Estimated
Sun 08:15:00 PM 30.5670 -81.9168 110° East  Level Estimated
Sun 08:16:00 PM 30.5597 -81.8940 110° East  Level Estimated
Sun 08:17:00 PM 30.5525 -81.8711 110° East  Level Estimated
Sun 08:18:00 PM 30.5452 -81.8483 110° East  Level Estimated
Sun 08:19:00 PM 30.5379 -81.8254 110° East  Level Estimated
Sun 08:20:00 PM 30.5306 -81.8026 110° East  Level Estimated
Sun 08:21:00 PM 30.5234 -81.7797 110° East  Level Estimated
Sun 08:22:00 PM 30.5161 -81.7569 110° East  Level Estimated
Sun 08:23:00 PM 30.5088 -81.7340 110° East  Level Estimated
Sun 08:24:00 PM 30.5015 -81.7112 110° East  Level Estimated
Sun 08:25:00 PM 30.4942 -81.6884 110° East  Level Estimated
Sun 08:26:00 PM 30.4941 -81.6879 111° Southeast  Level Estimated
Sun 08:27:00 PM 30.4941 -81.6879 192° South  Level Estimated
Sun 08:28:00 PM 30.4941 -81.6879 192° South  Level Estimated
Sun 08:29:00 PM 30.4941 -81.6879 192° South  Level Estimated
Sun 08:30:00 PM 30.4941 -81.6879 192° South  Level Estimated
Sun 08:31:00 PM 30.4941 -81.6879 192° South  Level Estimated
Sun 08:32:00 PM 30.4941 -81.6879 192° South  Level Estimated
Sun 08:33:00 PM 30.4941 -81.6879 192° South  Level Estimated
Sun 08:34:00 PM 30.4941 -81.6879 192° South  Level Estimated
Sun 08:35:00 PM 30.4941 -81.6879 192° South  Level Estimated
Sun 08:36:00 PM 30.4941 -81.6879 192° South  Level Estimated
Sun 08:37:00 PM 30.4941 -81.6879 192° South  Level Estimated
Sun 08:38:00 PM 30.4941 -81.6879 192° South  Level Estimated
Sun 08:39:00 PM 30.4941 -81.6879 192° South  Level Estimated
Sun 08:40:00 PM 30.4941 -81.6879 192° South  Level Estimated
Sun 08:41:00 PM 30.4941 -81.6879 192° South  Level Estimated

Login

Don't have an account? Register now (free) for customized features, flight alerts, and more!